Skip Navigation LinksHome page > Weather > Current weather Skip Navigation Links

Current Weather

Eureka, Nunavut

For information only: do not use for flight planning or navigation.
Latest weather
Observation time Thursday, September 3, 2015 1:00 AM CDT
Local time Thursday, September 3, 2015 1:45 AM CDT
Flight conditions Visual Meteorological Conditions
Winds
Wind direction Southeast (140°)
Wind speed 10 mph
Visibility 15 mi.
Sky condition
Ceiling unlimited
Cloud layer few clouds 10,000 ft.
Cloud layer scattered clouds 20,000 ft.
Temperature 32°F
Dewpoint 23°F
Altimeter 30.16 in.Hg
Derived measurements
Relative humidity 69%
Wind chill 24°F
Density altitude -2009 ft.
Sea-level pressure 30.16 in.Hg
METAR CWEU 030600Z 14009KT 15SM FEW100 SCT200 M00/M05 A3016 RMK AC2CI0 SLP215

Settings

Location code

InnerDrive.Weather 4.0.5722.1 Release CLR 4.0.30319.34014
Copyright ©2015 Inner Drive Technology. All rights reserved. Portions Copyright ©1986-2015 David Braverman.

Find weather

Site navigation


Skip Navigation Links

Place info

Page info

PayPal - The safer, easier way to pay online!

Return home.

Copyright ©2015 Inner Drive Technology. Purveyors of fine, hand-crafted computer software. Page printed 2015-09-03T06:45:56 UTC.